createdAt,value
2019-05-09T00:04:54.492Z,67.89
2019-05-09T00:09:54.725Z,67.36
2019-05-09T00:14:55.541Z,67.53
2019-05-09T00:19:55.561Z,67.13
2019-05-09T00:24:55.602Z,67.58
2019-05-09T00:29:55.645Z,67.02
2019-05-09T00:34:57.283Z,67.27
2019-05-09T00:39:57.328Z,67.03
2019-05-09T00:44:57.369Z,66.83
2019-05-09T00:50:05.530Z,67.26
2019-05-09T00:55:04.340Z,67.38
2019-05-09T01:00:04.388Z,66.71
2019-05-09T01:05:04.649Z,67.38
2019-05-09T01:10:04.691Z,67.35
2019-05-09T01:15:04.121Z,67.07
2019-05-09T01:20:04.117Z,66.88
2019-05-09T01:25:04.597Z,66.71
2019-05-09T01:30:05.069Z,66.16
2019-05-09T01:35:04.457Z,66.07
2019-05-09T01:40:04.767Z,66.77
2019-05-09T01:45:14.510Z,66.18
2019-05-09T01:50:14.362Z,66.11
2019-05-09T01:55:14.586Z,66.07
2019-05-09T02:00:13.619Z,65.56
2019-05-09T02:05:13.873Z,65.67
2019-05-09T02:10:14.309Z,65.06
2019-05-09T02:15:13.451Z,65.51
2019-05-09T02:20:14.099Z,65.48
2019-05-09T02:25:14.075Z,65.79
2019-05-09T02:30:15.794Z,65.96
2019-05-09T02:35:13.805Z,66.27
2019-05-09T02:40:20.099Z,66.42
2019-05-09T02:45:20.247Z,66.15
2019-05-09T02:50:20.504Z,65.86
2019-05-09T02:55:20.335Z,65.83
2019-05-09T03:00:21.145Z,65.47
2019-05-09T03:05:21.124Z,66.43
2019-05-09T03:10:21.209Z,67.03
2019-05-09T03:15:21.410Z,66.06
2019-05-09T03:20:21.531Z,66.21
2019-05-09T03:25:21.539Z,65.88
2019-05-09T03:30:21.828Z,66.0
2019-05-09T03:35:28.111Z,65.53
2019-05-09T03:40:28.108Z,65.88
2019-05-09T03:45:29.719Z,65.76
2019-05-09T03:50:29.728Z,65.67
2019-05-09T03:55:29.773Z,65.44
2019-05-09T04:00:29.866Z,66.47
2019-05-09T04:05:29.913Z,66.4
2019-05-09T04:10:29.955Z,66.21
2019-05-09T04:15:30.079Z,65.96
2019-05-09T04:20:30.077Z,66.07
2019-05-09T04:25:30.275Z,66.08
2019-05-09T04:30:37.638Z,65.87
2019-05-09T04:35:38.603Z,66.72
2019-05-09T04:40:45.833Z,66.71
2019-05-09T04:45:41.813Z,66.33
2019-05-09T04:50:37.990Z,66.62
2019-05-09T04:55:37.959Z,65.97
2019-05-09T05:00:38.005Z,65.78
2019-05-09T05:05:40.054Z,65.61
2019-05-09T05:10:37.701Z,65.6
2019-05-09T05:15:38.097Z,65.42
2019-05-09T05:20:38.321Z,65.3
2019-05-09T05:25:43.488Z,65.89
2019-05-09T05:30:43.734Z,65.22
2019-05-09T05:35:45.445Z,64.88
2019-05-09T05:40:49.814Z,64.7
2019-05-09T05:45:48.170Z,64.44
2019-05-09T05:50:45.734Z,63.96
2019-05-09T05:55:48.193Z,63.82
2019-05-09T06:00:47.932Z,63.6
2019-05-09T06:05:51.901Z,63.09
2019-05-09T06:10:48.522Z,62.75
2019-05-09T06:15:48.418Z,62.51
2019-05-09T06:20:52.323Z,62.72
2019-05-09T06:25:52.362Z,62.58
2019-05-09T06:30:52.487Z,62.46
2019-05-09T06:35:52.986Z,62.71
2019-05-09T06:40:52.838Z,62.09
2019-05-09T06:45:53.084Z,62.2
2019-05-09T06:50:53.014Z,62.26
2019-05-09T06:55:53.054Z,61.23
2019-05-09T07:00:53.177Z,60.75
2019-05-09T07:05:53.205Z,60.01
2019-05-09T07:10:53.212Z,60.03
2019-05-09T07:15:59.649Z,58.28
2019-05-09T07:20:59.691Z,58.08
2019-05-09T07:25:59.937Z,56.63
2019-05-09T07:31:00.154Z,57.29
2019-05-09T07:36:00.109Z,56.04
2019-05-09T07:41:00.399Z,56.5
2019-05-09T07:46:00.581Z,56.1
2019-05-09T07:51:00.639Z,56.75
2019-05-09T07:56:01.244Z,56.76
2019-05-09T08:01:01.960Z,56.8
2019-05-09T08:06:00.801Z,57.04
2019-05-09T08:11:09.294Z,56.42
2019-05-09T08:16:14.946Z,57.62
2019-05-09T08:21:08.921Z,56.38
2019-05-09T08:26:09.229Z,57.6
2019-05-09T08:31:08.862Z,61.92
2019-05-09T08:36:09.441Z,59.71
2019-05-09T08:41:09.906Z,60.86
2019-05-09T08:46:09.430Z,58.41
2019-05-09T08:51:09.553Z,59.19
2019-05-09T08:56:13.237Z,59.27
2019-05-09T09:01:12.062Z,59.54
2019-05-09T09:06:18.784Z,61.18
2019-05-09T09:11:19.099Z,61.5
2019-05-09T09:16:22.638Z,61.57
2019-05-09T09:21:18.713Z,60.55
2019-05-09T09:26:18.749Z,60.33
2019-05-09T09:31:18.649Z,60.39
2019-05-09T09:36:18.670Z,59.05
2019-05-09T09:41:18.705Z,59.25
2019-05-09T09:46:19.059Z,59.92
2019-05-09T09:51:19.846Z,58.91
2019-05-09T09:56:22.715Z,58.24
2019-05-09T10:01:29.066Z,56.54
2019-05-09T10:06:28.767Z,55.39
2019-05-09T10:11:28.910Z,54.83
2019-05-09T10:16:32.846Z,53.95
2019-05-09T10:21:28.046Z,52.93
2019-05-09T10:26:28.726Z,53.42
2019-05-09T10:31:28.622Z,52.11
2019-05-09T10:36:28.411Z,51.98
2019-05-09T10:41:28.343Z,49.85
2019-05-09T10:46:53.501Z,49.49
2019-05-09T10:51:28.540Z,50.0
2019-05-09T10:56:35.017Z,47.71
2019-05-09T11:01:35.007Z,48.28
2019-05-09T11:06:38.573Z,48.93
2019-05-09T11:11:35.388Z,51.24
2019-05-09T11:16:49.158Z,51.5
2019-05-09T11:21:35.813Z,50.45
2019-05-09T11:26:36.013Z,52.08
2019-05-09T11:31:38.860Z,53.5
2019-05-09T11:36:38.341Z,54.42
2019-05-09T11:41:38.748Z,57.67
2019-05-09T11:46:38.598Z,59.18
2019-05-09T11:51:43.137Z,60.67
2019-05-09T11:56:43.844Z,61.59
2019-05-09T12:01:44.372Z,62.64
2019-05-09T12:06:44.648Z,62.41
2019-05-09T12:11:45.121Z,63.9
2019-05-09T12:16:44.725Z,64.37
2019-05-09T12:21:48.592Z,64.28
2019-05-09T12:26:45.010Z,63.97
2019-05-09T12:31:45.126Z,65.53
2019-05-09T12:36:49.000Z,64.44
2019-05-09T12:41:48.673Z,65.32
2019-05-09T12:46:52.434Z,64.4
2019-05-09T12:51:52.615Z,63.75
2019-05-09T12:56:52.730Z,63.83
2019-05-09T13:01:52.767Z,64.12
2019-05-09T13:06:52.946Z,65.53
2019-05-09T13:11:52.961Z,64.15
2019-05-09T13:16:54.140Z,66.72
2019-05-09T13:21:53.881Z,65.33
2019-05-09T13:26:53.923Z,65.43
2019-05-09T13:31:54.039Z,66.83
2019-05-09T13:36:54.259Z,66.08
2019-05-09T13:42:00.882Z,65.23
2019-05-09T13:47:00.686Z,66.5
2019-05-09T13:52:05.311Z,66.08
2019-05-09T13:57:03.036Z,66.82
2019-05-09T14:02:03.180Z,66.42
2019-05-09T14:07:03.396Z,64.98
2019-05-09T14:12:03.629Z,64.57
2019-05-09T14:17:03.760Z,63.25
2019-05-09T14:22:04.440Z,61.48
2019-05-09T14:27:04.464Z,61.63
2019-05-09T14:32:05.923Z,61.41
2019-05-09T14:37:13.028Z,62.35
2019-05-09T14:42:13.145Z,61.44
2019-05-09T14:47:13.154Z,62.03
2019-05-09T14:52:13.278Z,61.71
2019-05-09T14:57:14.551Z,60.53
2019-05-09T15:02:18.183Z,64.65
2019-05-09T15:07:15.484Z,64.93
2019-05-09T15:12:15.724Z,65.68
2019-05-09T15:17:15.676Z,66.44
2019-05-09T15:22:15.712Z,66.63
2019-05-09T15:27:18.062Z,65.9
2019-05-09T15:32:24.189Z,66.26
2019-05-09T15:37:24.195Z,64.92
2019-05-09T15:42:24.230Z,63.22
2019-05-09T15:47:24.718Z,64.44
2019-05-09T15:52:24.742Z,64.23
2019-05-09T15:57:26.977Z,64.23
2019-05-09T16:02:27.951Z,63.14
2019-05-09T16:07:25.058Z,62.62
2019-05-09T16:12:28.002Z,63.45
2019-05-09T16:17:28.197Z,64.89
2019-05-09T16:22:25.322Z,67.19
2019-05-09T16:27:31.787Z,67.21
2019-05-09T16:32:31.753Z,66.05
2019-05-09T16:38:05.445Z,68.09
2019-05-09T16:42:31.936Z,66.56
2019-05-09T16:47:31.971Z,66.46
2019-05-09T16:52:44.450Z,63.83
2019-05-09T16:57:43.985Z,64.78
2019-05-09T17:02:43.984Z,63.17
2019-05-09T17:07:44.097Z,62.67
2019-05-09T17:12:48.101Z,62.46
2019-05-09T17:17:47.984Z,64.83
2019-05-09T17:22:51.928Z,64.95
2019-05-09T17:27:59.221Z,63.68
2019-05-09T17:32:52.647Z,63.08
2019-05-09T17:37:52.761Z,62.84
2019-05-09T17:42:52.879Z,62.64
2019-05-09T17:47:52.911Z,63.31
2019-05-09T17:52:52.948Z,62.66
2019-05-09T17:57:53.119Z,64.56
2019-05-09T18:02:53.059Z,66.43
2019-05-09T18:07:53.188Z,66.46
2019-05-09T18:12:53.146Z,66.53
2019-05-09T18:17:59.514Z,65.96
2019-05-09T18:22:59.550Z,66.03
2019-05-09T18:27:59.953Z,66.89
2019-05-09T18:32:59.830Z,65.88
2019-05-09T18:38:00.203Z,67.02
2019-05-09T18:43:00.005Z,66.61
2019-05-09T18:48:00.042Z,66.5
2019-05-09T18:53:00.044Z,66.01
2019-05-09T18:58:00.339Z,65.98
2019-05-09T19:03:00.371Z,65.58
2019-05-09T19:08:01.140Z,65.73
2019-05-09T19:13:07.690Z,65.46
2019-05-09T19:18:07.488Z,65.19
2019-05-09T19:23:07.747Z,65.24
2019-05-09T19:28:07.641Z,64.31
2019-05-09T19:33:08.067Z,64.01
2019-05-09T19:38:08.128Z,64.63
2019-05-09T19:43:08.068Z,63.91
2019-05-09T19:48:08.307Z,63.74
2019-05-09T19:53:10.551Z,63.48
2019-05-09T19:58:08.460Z,63.55
2019-05-09T20:03:09.094Z,64.15
2019-05-09T20:08:15.715Z,64.35
2019-05-09T20:13:15.756Z,64.41
2019-05-09T20:18:15.772Z,64.32
2019-05-09T20:23:15.915Z,64.46
2019-05-09T20:28:15.915Z,64.1
2019-05-09T20:33:16.034Z,64.59
2019-05-09T20:38:16.071Z,65.09
2019-05-09T20:43:16.108Z,64.69
2019-05-09T20:48:16.345Z,64.36
2019-05-09T20:53:16.344Z,64.49
2019-05-09T20:58:16.382Z,65.27
2019-05-09T21:03:22.793Z,65.68
2019-05-09T21:08:22.829Z,65.72
2019-05-09T21:13:22.944Z,65.42
2019-05-09T21:18:23.024Z,64.74
2019-05-09T21:23:25.239Z,65.44
2019-05-09T21:28:23.172Z,65.1
2019-05-09T21:33:25.144Z,65.1
2019-05-09T21:38:25.157Z,65.06
2019-05-09T21:43:25.281Z,65.4
2019-05-09T21:48:25.444Z,65.16
2019-05-09T21:53:41.307Z,65.15
2019-05-09T21:58:35.765Z,65.59
2019-05-09T22:03:35.881Z,66.32
2019-05-09T22:08:36.063Z,66.73
2019-05-09T22:13:36.066Z,67.03
2019-05-09T22:18:36.102Z,67.34
2019-05-09T22:23:36.138Z,66.87
2019-05-09T22:28:36.253Z,66.8
2019-05-09T22:33:36.290Z,66.88
2019-05-09T22:38:37.146Z,66.4
2019-05-09T22:43:37.137Z,66.4
2019-05-09T22:48:37.254Z,65.35
2019-05-09T22:53:43.536Z,65.62
2019-05-09T22:58:43.538Z,64.79
2019-05-09T23:03:43.717Z,64.8
2019-05-09T23:08:43.705Z,64.75
2019-05-09T23:13:43.790Z,65.67
2019-05-09T23:18:43.818Z,65.55
2019-05-09T23:23:43.987Z,64.61
2019-05-09T23:28:44.599Z,64.58
2019-05-09T23:33:44.636Z,63.77
2019-05-09T23:38:44.673Z,63.67
2019-05-09T23:43:44.855Z,63.77
2019-05-09T23:48:51.066Z,63.7
2019-05-09T23:53:51.128Z,63.81
2019-05-09T23:58:51.406Z,64.24
